createdAt,value
2022-08-22T00:00:17.249Z,17.75
2022-08-22T00:02:59.226Z,17.78
2022-08-22T00:03:08.325Z,18.19
2022-08-22T00:03:36.765Z,17.69
2022-08-22T00:06:52.677Z,17.70
2022-08-22T00:10:05.349Z,17.61
2022-08-22T00:13:17.865Z,17.55
2022-08-22T00:16:32.770Z,17.55
2022-08-22T00:19:50.080Z,17.53
2022-08-22T00:23:00.863Z,17.56
2022-08-22T00:26:17.712Z,17.60
2022-08-22T00:29:31.832Z,17.61
2022-08-22T00:32:44.715Z,17.62
2022-08-22T00:35:54.944Z,17.65
2022-08-22T00:39:16.745Z,17.69
2022-08-22T00:42:46.595Z,17.72
2022-08-22T00:46:13.441Z,17.72
2022-08-22T00:49:32.417Z,17.71
2022-08-22T00:53:05.070Z,17.71
2022-08-22T00:56:37.810Z,17.74
2022-08-22T01:00:03.587Z,17.76
2022-08-22T01:03:51.664Z,17.77
2022-08-22T01:07:11.943Z,17.79
2022-08-22T01:10:34.342Z,17.80
2022-08-22T01:13:55.312Z,17.74
2022-08-22T01:17:40.559Z,17.74
2022-08-22T01:21:32.554Z,17.69
2022-08-22T01:25:27.733Z,17.70
2022-08-22T01:29:12.377Z,17.65
2022-08-22T01:32:57.949Z,17.65
2022-08-22T01:36:50.619Z,17.68
2022-08-22T01:40:53.306Z,17.72
2022-08-22T01:44:32.436Z,17.62
2022-08-22T01:47:46.780Z,17.62
2022-08-22T01:50:58.148Z,17.62
2022-08-22T01:54:11.264Z,17.62
2022-08-22T01:57:18.557Z,17.62
2022-08-22T02:00:35.360Z,17.61
2022-08-22T02:03:54.758Z,17.60
2022-08-22T02:07:09.471Z,17.58
2022-08-22T02:10:24.104Z,17.62
2022-08-22T02:13:46.817Z,17.65
2022-08-22T02:16:58.567Z,17.66
2022-08-22T02:20:20.368Z,17.62
2022-08-22T02:23:31.941Z,17.62
2022-08-22T02:26:50.299Z,17.62
2022-08-22T02:30:03.583Z,17.56
2022-08-22T02:33:16.896Z,17.52
2022-08-22T02:36:28.035Z,17.56
2022-08-22T02:39:39.883Z,17.56
2022-08-22T02:42:52.881Z,17.55
2022-08-22T02:46:05.377Z,17.51
2022-08-22T02:49:22.548Z,17.39
2022-08-22T02:52:43.441Z,17.41
2022-08-22T02:55:58.459Z,17.47
2022-08-22T02:59:17.776Z,17.50
2022-08-22T03:02:39.657Z,17.52
2022-08-22T03:05:56.857Z,17.51
2022-08-22T03:09:21.509Z,17.44
2022-08-22T03:12:35.201Z,17.42
2022-08-22T03:15:49.542Z,17.46
2022-08-22T03:19:03.253Z,17.46
2022-08-22T03:22:17.056Z,17.45
2022-08-22T03:25:31.561Z,17.50
2022-08-22T03:28:59.220Z,17.55
2022-08-22T03:32:15.984Z,17.61
2022-08-22T03:35:28.438Z,17.65
2022-08-22T03:38:49.281Z,17.69
2022-08-22T03:42:09.758Z,17.70
2022-08-22T03:45:57.563Z,17.73
2022-08-22T03:49:35.469Z,17.69
2022-08-22T03:53:15.478Z,17.61
2022-08-22T03:57:01.784Z,17.62
2022-08-22T04:00:29.116Z,17.67
2022-08-22T04:04:02.570Z,17.70
2022-08-22T04:07:31.685Z,17.71
2022-08-22T04:11:02.628Z,17.74
2022-08-22T04:14:54.759Z,17.77
2022-08-22T04:18:23.463Z,17.77
2022-08-22T04:21:50.205Z,17.80
2022-08-22T04:25:07.552Z,17.84
2022-08-22T04:28:18.778Z,17.79
2022-08-22T04:31:34.856Z,17.77
2022-08-22T04:34:46.858Z,17.74
2022-08-22T04:37:58.946Z,17.70
2022-08-22T04:41:10.867Z,17.72
2022-08-22T04:44:28.260Z,17.67
2022-08-22T04:47:38.875Z,17.64
2022-08-22T04:50:51.327Z,17.69
2022-08-22T04:54:15.385Z,17.72
2022-08-22T04:57:29.726Z,17.78
2022-08-22T05:00:43.688Z,17.78
2022-08-22T05:03:58.206Z,17.74
2022-08-22T05:07:12.987Z,17.80
2022-08-22T05:10:25.649Z,17.81
2022-08-22T05:13:39.276Z,17.78
2022-08-22T05:16:50.232Z,17.77
2022-08-22T05:20:01.702Z,17.83
2022-08-22T05:23:17.252Z,17.86
2022-08-22T05:26:25.219Z,17.93
2022-08-22T05:29:34.301Z,17.92
2022-08-22T05:32:49.405Z,17.96
2022-08-22T05:36:04.372Z,18.02
2022-08-22T05:39:14.881Z,17.99
2022-08-22T05:42:27.361Z,18.04
2022-08-22T05:45:35.700Z,18.13
2022-08-22T05:48:45.571Z,18.16
2022-08-22T05:52:00.147Z,18.14
2022-08-22T05:55:12.100Z,18.20
2022-08-22T05:58:39.908Z,18.26
2022-08-22T06:01:56.416Z,18.33
2022-08-22T06:05:11.758Z,18.40
2022-08-22T06:08:21.632Z,18.45
2022-08-22T06:11:34.238Z,18.48
2022-08-22T06:14:46.700Z,18.55
2022-08-22T06:17:58.540Z,18.58
2022-08-22T06:21:09.975Z,18.53
2022-08-22T06:24:22.157Z,18.44
2022-08-22T06:27:31.263Z,18.37
2022-08-22T06:30:39.842Z,18.41
2022-08-22T06:33:49.290Z,18.45
2022-08-22T06:36:58.701Z,18.47
2022-08-22T06:40:09.395Z,18.44
2022-08-22T06:43:16.485Z,18.41
2022-08-22T06:46:26.050Z,18.46
2022-08-22T06:49:34.639Z,18.54
2022-08-22T06:52:51.518Z,18.56
2022-08-22T06:56:03.059Z,18.47
2022-08-22T06:59:13.536Z,18.35
2022-08-22T07:02:28.949Z,18.22
2022-08-22T07:05:40.741Z,18.15
2022-08-22T07:08:47.667Z,18.09
2022-08-22T07:11:56.088Z,18.09
2022-08-22T07:15:14.520Z,18.19
2022-08-22T07:18:23.469Z,18.26
2022-08-22T07:21:36.263Z,18.24
2022-08-22T07:24:48.319Z,18.25
2022-08-22T07:28:15.907Z,18.34
2022-08-22T07:31:31.777Z,18.46
2022-08-22T07:34:51.289Z,18.60
2022-08-22T07:38:06.598Z,18.73
2022-08-22T07:41:20.203Z,18.83
2022-08-22T07:44:32.428Z,18.85
2022-08-22T07:47:53.356Z,18.90
2022-08-22T07:51:08.439Z,18.89
2022-08-22T07:54:17.953Z,18.88
2022-08-22T07:57:29.823Z,18.93
2022-08-22T08:00:42.922Z,18.97
2022-08-22T08:03:55.777Z,19.07
2022-08-22T08:07:04.766Z,19.15
2022-08-22T08:10:17.855Z,19.18
2022-08-22T08:13:28.236Z,19.26
2022-08-22T08:16:42.726Z,19.29
2022-08-22T08:19:50.847Z,19.33
2022-08-22T08:22:59.651Z,19.27
2022-08-22T08:26:09.920Z,19.29
2022-08-22T08:29:20.060Z,19.34
2022-08-22T08:32:29.286Z,19.29
2022-08-22T08:35:42.424Z,19.27
2022-08-22T08:39:17.388Z,19.27
2022-08-22T08:42:59.728Z,19.31
2022-08-22T08:46:36.688Z,19.33
2022-08-22T08:50:09.489Z,19.32
2022-08-22T08:53:43.335Z,19.25
2022-08-22T08:56:59.661Z,19.24
2022-08-22T09:00:14.732Z,19.19
2022-08-22T09:07:54.720Z,19.22
2022-08-22T09:11:34.946Z,19.29
2022-08-22T09:14:56.181Z,19.38
2022-08-22T09:18:30.984Z,19.40
2022-08-22T09:22:14.449Z,19.31
2022-08-22T09:25:39.276Z,19.32
2022-08-22T09:28:55.894Z,19.39
2022-08-22T09:32:13.064Z,19.48
2022-08-22T09:35:28.377Z,19.57
2022-08-22T09:38:52.140Z,19.65
2022-08-22T09:40:15.327Z,19.23
2022-08-22T09:42:03.671Z,19.61
2022-08-22T09:45:50.010Z,19.56
2022-08-22T09:49:06.621Z,19.59
2022-08-22T09:52:35.677Z,19.55
2022-08-22T09:55:57.088Z,19.61
2022-08-22T09:59:10.022Z,19.66
2022-08-22T10:02:30.473Z,19.69
2022-08-22T10:05:46.525Z,19.73
2022-08-22T10:09:03.749Z,19.80
2022-08-22T10:12:15.523Z,19.88
2022-08-22T10:15:30.950Z,19.99
2022-08-22T10:18:52.532Z,20.11
2022-08-22T10:22:45.720Z,20.26
2022-08-22T10:25:56.249Z,20.46
2022-08-22T10:29:30.697Z,20.53
2022-08-22T10:32:43.027Z,20.74
2022-08-22T10:36:11.939Z,20.95
2022-08-22T10:39:24.940Z,20.99
2022-08-22T10:42:35.857Z,21.03
2022-08-22T10:45:46.572Z,21.09
2022-08-22T10:48:58.637Z,21.20
2022-08-22T10:52:17.502Z,21.24
2022-08-22T10:55:28.746Z,21.23
2022-08-22T10:58:41.860Z,21.24
2022-08-22T11:02:01.814Z,21.23
2022-08-22T11:05:23.913Z,21.34
2022-08-22T11:08:50.652Z,21.38
2022-08-22T11:12:04.317Z,21.40
2022-08-22T11:15:28.468Z,21.38
2022-08-22T11:19:03.165Z,21.37
2022-08-22T11:22:33.831Z,21.47
2022-08-22T11:25:52.538Z,21.39
2022-08-22T11:29:19.212Z,21.22
2022-08-22T11:32:35.715Z,21.18
2022-08-22T11:35:48.167Z,21.11
2022-08-22T11:39:13.737Z,21.04
2022-08-22T11:42:33.248Z,21.09
2022-08-22T11:45:44.533Z,21.06
2022-08-22T11:49:08.955Z,21.06
2022-08-22T11:52:26.324Z,21.19
2022-08-22T11:55:38.369Z,21.31
2022-08-22T11:58:57.585Z,21.40
2022-08-22T12:02:08.761Z,21.64
2022-08-22T12:05:26.296Z,21.95
2022-08-22T12:09:07.324Z,22.15
2022-08-22T12:12:37.561Z,22.27
2022-08-22T12:15:54.022Z,22.19
2022-08-22T12:19:11.185Z,22.18
2022-08-22T12:22:48.695Z,22.30
2022-08-22T12:26:10.733Z,22.26
2022-08-22T12:29:33.820Z,22.32
2022-08-22T12:33:15.489Z,22.35
2022-08-22T12:36:50.561Z,22.36
2022-08-22T12:40:18.238Z,22.40
2022-08-22T12:43:44.649Z,22.66
2022-08-22T12:47:04.679Z,23.01
2022-08-22T12:50:26.425Z,23.27
2022-08-22T12:54:06.501Z,23.40
2022-08-22T12:57:25.694Z,23.42
2022-08-22T13:00:37.832Z,23.48
2022-08-22T13:03:50.908Z,23.52
2022-08-22T13:07:04.164Z,23.56
2022-08-22T13:10:33.380Z,23.59
2022-08-22T13:13:42.988Z,23.67
2022-08-22T13:17:10.952Z,23.71
2022-08-22T13:20:35.373Z,23.69
2022-08-22T13:23:46.079Z,23.70
2022-08-22T13:27:02.233Z,23.74
2022-08-22T13:30:19.178Z,23.80
2022-08-22T13:33:30.247Z,23.78
2022-08-22T13:36:51.700Z,23.78
2022-08-22T13:40:03.311Z,23.83
2022-08-22T13:43:14.581Z,23.86
2022-08-22T13:46:30.321Z,23.90
2022-08-22T13:49:45.428Z,23.90
2022-08-22T13:52:58.446Z,23.85
2022-08-22T13:56:15.533Z,23.83
2022-08-22T13:59:50.117Z,23.85
2022-08-22T14:03:08.212Z,23.81
2022-08-22T14:06:35.206Z,23.82
2022-08-22T14:09:54.354Z,23.86
2022-08-22T14:13:41.003Z,23.88
2022-08-22T14:16:53.072Z,23.88
2022-08-22T14:20:03.954Z,23.94
2022-08-22T14:23:19.018Z,24.01
2022-08-22T14:26:37.370Z,23.96
2022-08-22T14:29:57.615Z,23.95
2022-08-22T14:33:14.329Z,23.95
2022-08-22T14:36:24.824Z,24.02
2022-08-22T14:39:38.222Z,24.08
2022-08-22T14:42:52.798Z,24.10
2022-08-22T14:46:02.352Z,24.11
2022-08-22T14:49:29.089Z,24.15
2022-08-22T14:52:42.869Z,24.23
2022-08-22T14:56:00.240Z,24.27
2022-08-22T14:59:10.104Z,24.23
2022-08-22T15:02:29.332Z,24.24
2022-08-22T15:05:45.702Z,24.27
2022-08-22T15:08:53.785Z,24.27
2022-08-22T15:12:03.562Z,24.25
2022-08-22T15:15:16.241Z,24.26
2022-08-22T15:18:34.976Z,24.36
2022-08-22T15:21:41.782Z,24.46
2022-08-22T15:24:54.965Z,24.54
2022-08-22T15:28:06.093Z,24.62
2022-08-22T15:31:18.753Z,24.68
2022-08-22T15:34:32.672Z,24.71
2022-08-22T15:37:58.053Z,24.69
2022-08-22T15:41:38.490Z,24.68
2022-08-22T15:44:57.360Z,24.54
2022-08-22T15:48:05.872Z,24.49
2022-08-22T15:51:14.832Z,24.51
2022-08-22T15:54:25.372Z,24.52
2022-08-22T15:57:35.113Z,24.51
2022-08-22T16:00:45.649Z,24.53
2022-08-22T16:04:00.301Z,24.58
2022-08-22T16:07:26.769Z,24.56
2022-08-22T16:10:38.103Z,24.53
2022-08-22T16:13:46.533Z,24.47
2022-08-22T16:17:04.093Z,24.37
2022-08-22T16:20:56.237Z,24.25
2022-08-22T16:24:33.887Z,24.13
2022-08-22T16:27:58.820Z,24.07
2022-08-22T16:31:20.575Z,23.96
2022-08-22T16:34:39.923Z,23.89
2022-08-22T16:37:51.082Z,23.72
2022-08-22T16:40:58.079Z,23.64
2022-08-22T16:44:36.296Z,23.53
2022-08-22T16:47:56.682Z,23.40
2022-08-22T16:51:13.428Z,23.30
2022-08-22T16:54:47.453Z,23.19
2022-08-22T16:58:10.180Z,23.13
2022-08-22T17:01:24.357Z,23.08
2022-08-22T17:04:41.448Z,23.10
2022-08-22T17:08:01.161Z,23.15
2022-08-22T17:11:23.433Z,23.11
2022-08-22T17:14:57.498Z,23.01
2022-08-22T17:18:35.380Z,22.95
2022-08-22T17:21:51.014Z,22.84
2022-08-22T17:25:13.833Z,22.76
2022-08-22T17:28:33.938Z,22.71
2022-08-22T17:31:51.672Z,22.61
2022-08-22T17:35:14.042Z,22.48
2022-08-22T17:38:31.509Z,22.35
2022-08-22T17:41:48.221Z,22.24
2022-08-22T17:45:04.652Z,22.12
2022-08-22T17:48:17.512Z,22.00
2022-08-22T17:51:29.489Z,21.90
2022-08-22T17:54:42.572Z,21.79
2022-08-22T17:57:54.718Z,21.72
2022-08-22T18:01:10.867Z,21.70
2022-08-22T18:04:26.082Z,21.63
2022-08-22T18:08:00.212Z,21.55
2022-08-22T18:11:14.834Z,21.38
2022-08-22T18:14:31.689Z,21.27
2022-08-22T18:17:43.773Z,21.12
2022-08-22T18:20:56.902Z,21.06
2022-08-22T18:24:17.028Z,21.05
2022-08-22T18:27:35.764Z,21.03
2022-08-22T18:31:00.164Z,21.03
2022-08-22T18:34:17.898Z,21.01
2022-08-22T18:37:49.893Z,20.97
2022-08-22T18:41:08.548Z,20.99
2022-08-22T18:44:21.993Z,20.91
2022-08-22T18:47:32.547Z,20.83
2022-08-22T18:50:41.036Z,20.83
2022-08-22T18:53:51.965Z,20.85
2022-08-22T18:57:07.572Z,20.82
2022-08-22T19:00:17.238Z,20.71
2022-08-22T19:03:37.322Z,20.67
2022-08-22T19:07:07.174Z,20.57
2022-08-22T19:10:38.947Z,20.52
2022-08-22T19:14:07.560Z,20.56
2022-08-22T19:17:31.181Z,20.60
2022-08-22T19:21:03.868Z,20.59
2022-08-22T19:24:15.158Z,20.63
2022-08-22T19:27:32.197Z,20.55
2022-08-22T19:30:49.493Z,20.25
2022-08-22T19:34:19.119Z,20.03
2022-08-22T19:37:34.214Z,19.91
2022-08-22T19:40:59.133Z,19.87
2022-08-22T19:44:07.773Z,19.80
2022-08-22T19:47:36.831Z,19.65
2022-08-22T19:50:45.537Z,19.57
2022-08-22T19:54:05.171Z,19.60
2022-08-22T19:57:21.169Z,19.59
2022-08-22T20:00:52.854Z,19.62
2022-08-22T20:04:08.646Z,19.62
2022-08-22T20:07:28.436Z,19.59
2022-08-22T20:10:54.457Z,19.61
2022-08-22T20:14:30.924Z,19.63
2022-08-22T20:18:11.687Z,19.61
2022-08-22T20:21:14.519Z,19.42
2022-08-22T20:24:29.128Z,19.33
2022-08-22T20:27:41.927Z,19.36
2022-08-22T20:30:53.863Z,19.40
2022-08-22T20:34:04.023Z,19.41
2022-08-22T20:37:40.273Z,19.43
2022-08-22T20:40:57.364Z,19.42
2022-08-22T20:44:14.272Z,19.38
2022-08-22T20:47:24.382Z,19.37
2022-08-22T20:50:31.659Z,19.36
2022-08-22T20:53:38.909Z,19.36
2022-08-22T20:56:53.690Z,19.36
2022-08-22T21:00:06.724Z,19.35
2022-08-22T21:03:34.147Z,19.35
2022-08-22T21:06:40.468Z,19.32
2022-08-22T21:10:17.765Z,19.29
2022-08-22T21:13:30.220Z,19.26
2022-08-22T21:16:36.553Z,19.10
2022-08-22T21:19:42.852Z,18.99
2022-08-22T21:22:49.615Z,18.97
2022-08-22T21:25:59.944Z,18.95
2022-08-22T21:29:10.289Z,18.97
2022-08-22T21:32:30.407Z,18.99
2022-08-22T21:35:36.983Z,19.01
2022-08-22T21:38:47.919Z,18.99
2022-08-22T21:42:10.117Z,18.99
2022-08-22T21:45:30.282Z,18.91
2022-08-22T21:48:45.048Z,18.83
2022-08-22T21:51:51.819Z,18.83
2022-08-22T21:55:13.343Z,18.84
2022-08-22T21:58:36.941Z,18.84
2022-08-22T22:01:45.950Z,18.82
2022-08-22T22:04:52.322Z,18.83
2022-08-22T22:07:58.708Z,18.69
2022-08-22T22:11:08.980Z,18.64
2022-08-22T22:14:15.292Z,18.68
2022-08-22T22:17:22.355Z,18.71
2022-08-22T22:20:29.644Z,18.69
2022-08-22T22:23:36.002Z,18.71
2022-08-22T22:26:42.190Z,18.73
2022-08-22T22:29:48.709Z,18.74
2022-08-22T22:32:55.121Z,18.74
2022-08-22T22:36:06.075Z,18.73
2022-08-22T22:39:12.513Z,18.69
2022-08-22T22:42:18.766Z,18.64
2022-08-22T22:45:25.364Z,18.64
2022-08-22T22:48:31.738Z,18.64
2022-08-22T22:51:38.073Z,18.62
2022-08-22T22:54:44.488Z,18.59
2022-08-22T22:57:59.298Z,18.58
2022-08-22T23:01:12.193Z,18.56
2022-08-22T23:04:19.572Z,18.55
2022-08-22T23:07:27.326Z,18.51
2022-08-22T23:10:34.643Z,18.47
2022-08-22T23:13:43.147Z,18.42
2022-08-22T23:16:49.900Z,18.40
2022-08-22T23:19:56.292Z,18.37
2022-08-22T23:23:02.577Z,18.35
2022-08-22T23:26:09.340Z,18.31
2022-08-22T23:29:15.728Z,18.29
2022-08-22T23:32:24.256Z,18.26
2022-08-22T23:35:30.881Z,18.23
2022-08-22T23:38:37.132Z,18.20
2022-08-22T23:41:44.353Z,18.16
2022-08-22T23:44:52.801Z,18.12
2022-08-22T23:47:59.224Z,18.09
2022-08-22T23:51:06.008Z,18.08
2022-08-22T23:54:13.081Z,18.07
2022-08-22T23:57:19.393Z,18.05
